Owls Head, Maine
Current Conditions -  °F | °C
As of 3:15 PM on Thursday 23 Oct 2014 (Local Time) from KRKD Reporting Station
Overcast Overcast  
Wind Chill: 52°   Ceiling: 1400
Heat Index: 52°   Visibility: 4mi
Dew Point: 52°   Wind: 15mph
Humidity: 100%   Direction: 20°NNE
Pressure: 29.74"   Gusts: 28mph
Location:  44.08°N, 69.06°W
Report Text: KRKD 231915Z AUTO 02013G24KT 4SM SCT005 BKN014 OVC037 11/11 A2974 RMK AO1 TSE10 P0009
Loading
Personal Weather Stations






























Interactive Weather Map
Tropical Storm Tracking
New forecast layout! Learn more

10-Day Weather Forecast

Advertisements
Track Severe Weather on mobile